Time;durP1;ratioP1;P1;durP2;ratioP2;P2;SDS_P1;SDS_P2;PMS_P1;PMS_P2;Temp;Humidity;BMP_temperature;BMP_pressure;BME280_temperature;BME280_humidity;BME280_pressure;Samples;Min_cycle;Max_cycle;Signal;HPM_P1;HPM_P2
2023/02/07 00:01:34;;;;;;;27.95;10.98;;;;;;;-0.08;100.00;103874.34;5074302;28;20110;-61
2023/02/07 00:04:02;;;;;;;31.38;12.60;;;;;;;-0.07;100.00;103870.91;5074242;28;20087;-61
2023/02/07 00:06:34;;;;;;;26.95;11.57;;;;;;;-0.04;100.00;103868.41;5070710;28;20036;-61
2023/02/07 00:09:04;;;;;;;27.67;12.93;;;;;;;-0.08;100.00;103857.13;5070724;28;20407;-61
2023/02/07 00:11:33;;;;;;;28.85;12.35;;;;;;;-0.09;100.00;103870.00;5072565;28;20044;-61
2023/02/07 00:14:01;;;;;;;28.67;13.13;;;;;;;-0.10;100.00;103871.72;5073903;28;20383;-62
2023/02/07 00:16:29;;;;;;;28.95;12.27;;;;;;;-0.07;100.00;103865.75;5070659;28;20064;-61
2023/02/07 00:18:57;;;;;;;26.70;11.90;;;;;;;-0.07;100.00;103856.28;5070579;28;20395;-61
2023/02/07 00:21:29;;;;;;;;;;;;;;;-0.09;100.00;103857.94;5072312;28;20055;-61
2023/02/07 00:23:59;;;;;;;24.08;11.48;;;;;;;-0.12;100.00;103857.88;5073797;28;20007;-61
2023/02/07 00:26:28;;;;;;;30.35;12.10;;;;;;;-0.14;100.00;103869.00;5073784;28;20599;-61
2023/02/07 00:28:56;;;;;;;28.45;11.23;;;;;;;-0.17;100.00;103870.66;5073073;28;20055;-61
2023/02/07 00:31:26;;;;;;;30.38;11.65;;;;;;;-0.18;100.00;103868.94;5073030;28;20436;-61
2023/02/07 00:33:56;;;;;;;29.45;11.13;;;;;;;-0.21;100.00;103873.13;5070549;28;20120;-61
2023/02/07 00:36:26;;;;;;;24.20;11.40;;;;;;;-0.24;100.00;103871.31;5070091;28;20526;-61
2023/02/07 00:38:57;;;;;;;28.95;11.63;;;;;;;-0.28;100.00;103866.91;5072823;28;20537;-61
2023/02/07 00:41:27;;;;;;;26.65;11.80;;;;;;;-0.29;100.00;103861.69;5073392;28;20106;-62
2023/02/07 00:43:55;;;;;;;30.33;11.35;;;;;;;-0.32;100.00;103866.78;5070522;28;20524;-60
2023/02/07 00:46:24;;;;;;;29.23;11.65;;;;;;;-0.32;100.00;103867.66;5070286;28;20414;-61
2023/02/07 00:48:53;;;;;;;26.13;11.80;;;;;;;-0.37;100.00;103862.34;5070507;28;20053;-61
2023/02/07 00:51:21;;;;;;;23.40;12.35;;;;;;;-0.38;100.00;103863.19;5072035;28;20047;-62
2023/02/07 00:53:49;;;;;;;27.83;11.63;;;;;;;-0.35;100.00;103859.81;5069931;28;20388;-62
2023/02/07 00:56:17;;;;;;;29.10;11.35;;;;;;;-0.39;100.00;103864.00;5068693;28;20098;-62
2023/02/07 00:58:46;;;;;;;27.98;10.27;;;;;;;-0.39;100.00;103863.13;5072471;28;20423;-61
2023/02/07 01:01:19;;;;;;;24.23;10.75;;;;;;;-0.42;100.00;103855.28;5069623;28;20495;-61
2023/02/07 01:03:47;;;;;;;23.67;10.48;;;;;;;-0.42;100.00;103868.22;5069362;28;20044;-62
2023/02/07 01:06:15;;;;;;;28.83;11.50;;;;;;;-0.48;100.00;103868.91;5072070;28;20135;-61
2023/02/07 01:08:47;;;;;;;23.13;10.65;;;;;;;-0.51;100.00;103869.69;5071726;28;20123;-61
2023/02/07 01:11:17;;;;;;;27.05;12.00;;;;;;;-0.52;100.00;103872.22;5071069;28;20056;-61
2023/02/07 01:13:47;;;;;;;29.05;11.98;;;;;;;-0.50;100.00;103860.25;5051776;28;20060;-61
2023/02/07 01:16:18;;;;;;;27.23;10.90;;;;;;;-0.53;100.00;103860.16;5069244;28;20072;-61
2023/02/07 01:18:46;;;;;;;29.85;11.82;;;;;;;-0.55;100.00;103856.63;5072321;28;21045;-61
2023/02/07 01:21:16;;;;;;;26.48;11.85;;;;;;;-0.54;100.00;103856.66;5071555;28;20135;-61
2023/02/07 01:23:45;;;;;;;27.08;11.35;;;;;;;-0.57;100.00;103856.59;5071437;28;20044;-61
2023/02/07 01:26:13;;;;;;;25.15;11.60;;;;;;;-0.62;100.00;103865.91;5068239;28;20440;-62
2023/02/07 01:28:44;;;;;;;29.20;12.98;;;;;;;-0.64;100.00;103865.00;5069973;28;20048;-61
2023/02/07 01:31:13;;;;;;;30.70;13.43;;;;;;;-0.68;100.00;103865.75;5068950;28;20048;-61
2023/02/07 01:33:42;;;;;;;33.63;12.98;;;;;;;-0.73;100.00;103868.16;5069361;28;20048;-61
2023/02/07 01:36:13;;;;;;;28.98;12.65;;;;;;;-0.73;100.00;103862.13;5070259;28;20103;-61
2023/02/07 01:38:43;;;;;;;29.38;12.48;;;;;;;-0.76;100.00;103873.25;5070799;28;20040;-62
2023/02/07 01:41:13;;;;;;;30.88;12.55;;;;;;;-0.78;100.00;103871.44;5067840;28;20533;-61
2023/02/07 01:43:55;;;;;;;33.75;13.18;;;;;;;-0.83;100.00;103860.09;5069451;28;20415;-61
2023/02/07 01:46:25;;;;;;;34.15;12.73;;;;;;;-0.80;100.00;103867.97;5069017;28;20127;-61
2023/02/07 01:48:55;;;;;;;29.67;12.30;;;;;;;-0.81;100.00;103869.66;5070679;28;20475;-62
2023/02/07 01:51:26;;;;;;;26.40;12.27;;;;;;;-0.79;100.00;103867.09;5070198;28;20048;-61
2023/02/07 01:53:57;;;;;;;28.67;12.40;;;;;;;-0.83;100.00;103870.41;5068958;28;20060;-62
2023/02/07 01:56:26;;;;;;;31.58;12.38;;;;;;;-0.87;100.00;103864.31;5067971;28;20052;-62
2023/02/07 01:59:00;;;;;;;30.58;12.50;;;;;;;-0.90;100.00;103864.19;5069415;28;20511;-61
2023/02/07 02:01:32;;;;;;;27.13;12.83;;;;;;;-0.89;100.00;103861.63;5069902;28;20511;-61
2023/02/07 02:04:00;;;;;;;31.20;12.73;;;;;;;-0.95;100.00;103876.97;5072206;28;20499;-61
2023/02/07 02:06:31;;;;;;;34.80;12.40;;;;;;;-1.01;100.00;103871.59;5054246;28;20559;-62
2023/02/07 02:09:01;;;;;;;29.60;12.45;;;;;;;-1.01;100.00;103866.44;5072110;28;20055;-61
2023/02/07 02:12:06;;;;;;;34.60;13.27;;;;;;;-1.02;100.00;103864.69;5067635;28;20117;-61
2023/02/07 02:15:02;;;;;;;30.15;13.10;;;;;;;-1.06;100.00;103870.59;5069231;28;20041;-61
2023/02/07 02:17:53;;;;;;;30.95;13.98;;;;;;;-1.02;100.00;103881.06;5071433;28;20056;-61
2023/02/07 02:20:59;;;;;;;30.27;12.73;;;;;;;-1.01;100.00;103869.00;5072034;28;20052;-61
2023/02/07 02:23:42;;;;;;;32.78;12.32;;;;;;;-1.06;100.00;103874.03;5072097;28;20136;-61
2023/02/07 02:26:46;;;;;;;30.60;13.23;;;;;;;-1.13;100.00;103876.38;5072249;28;20510;-62
2023/02/07 02:29:59;;;;;;;27.30;14.07;;;;;;;-1.17;100.00;103864.19;5069758;28;20052;-62
2023/02/07 02:32:52;;;;;;;;;;;;;;;-1.11;100.00;103877.31;5068866;28;20055;-61
2023/02/07 02:35:25;;;;;;;28.23;13.07;;;;;;;-1.15;100.00;103883.22;5063930;28;19931;-62
2023/02/07 02:37:59;;;;;;;31.42;13.68;;;;;;;-1.20;100.00;103886.53;5051217;28;20049;-61
2023/02/07 02:40:32;;;;;;;29.63;13.30;;;;;;;-1.21;100.00;103889.94;5050939;28;20049;-61
2023/02/07 02:43:05;;;;;;;34.13;13.88;;;;;;;-1.22;100.00;103885.56;5048152;28;20099;-61
2023/02/07 02:45:38;;;;;;;30.88;13.75;;;;;;;-1.24;100.00;103874.34;5048754;28;20392;-61
2023/02/07 02:48:11;;;;;;;29.45;13.30;;;;;;;-1.21;100.00;103877.00;5049108;28;20064;-61
2023/02/07 02:50:44;;;;;;;27.92;12.82;;;;;;;-1.18;100.00;103880.53;5051864;28;20095;-61
2023/02/07 02:53:13;;;;;;;29.45;13.40;;;;;;;-1.23;100.00;103882.94;5053937;28;20053;-61
2023/02/07 02:56:11;;;;;;;30.88;13.40;;;;;;;-1.28;100.00;103877.66;5051403;28;20041;-61
2023/02/07 02:58:55;;;;;;;29.45;13.82;;;;;;;-1.32;100.00;103886.13;5054821;28;20484;-61
2023/02/07 03:01:34;;;;;;;28.38;13.07;;;;;;;-1.33;100.00;103897.28;5055154;28;20057;-61
2023/02/07 03:04:25;;;;;;;29.70;13.65;;;;;;;-1.38;100.00;103889.38;5054919;28;20460;-61
2023/02/07 03:07:07;;;;;;;25.50;13.07;;;;;;;-1.39;100.00;103886.72;5055673;28;20053;-61
2023/02/07 03:09:47;;;;;;;31.95;13.45;;;;;;;-1.44;100.00;103894.31;5051673;28;20052;-61
2023/02/07 03:12:21;;;;;;;30.52;13.57;;;;;;;-1.42;100.00;103899.53;5050644;28;20033;-62
2023/02/07 03:15:02;;;;;;;27.65;12.93;;;;;;;-1.40;100.00;103885.00;5052083;28;20049;-61
2023/02/07 03:17:36;;;;;;;29.67;13.82;;;;;;;-1.49;100.00;103882.97;5051383;28;20041;-61
2023/02/07 03:20:14;;;;;;;29.38;13.25;;;;;;;-1.44;100.00;103884.00;5055097;28;20049;-61
2023/02/07 03:22:44;;;;;;;25.88;12.05;;;;;;;-1.48;100.00;103881.28;5051794;28;20041;-61
2023/02/07 03:25:15;;;;;;;26.38;13.13;;;;;;;-1.51;100.00;103878.56;5051172;28;20063;-61
2023/02/07 03:27:46;;;;;;;28.67;13.32;;;;;;;-1.53;100.00;103875.94;5053075;28;20041;-61
2023/02/07 03:30:18;;;;;;;27.60;12.77;;;;;;;-1.58;100.00;103873.22;5054910;28;20073;-61
2023/02/07 03:32:51;;;;;;;30.00;13.98;;;;;;;-1.57;100.00;103869.81;5051597;28;20051;-61
2023/02/07 03:35:24;;;;;;;25.17;12.77;;;;;;;-1.58;100.00;103868.03;5060157;28;20068;-61
2023/02/07 03:37:56;;;;;;;30.05;13.25;;;;;;;-1.60;100.00;103868.81;5074856;28;20071;-61
2023/02/07 03:40:27;;;;;;;25.07;12.77;;;;;;;-1.63;100.00;103873.88;5075156;28;20047;-61
2023/02/07 03:43:02;;;;;;;24.23;13.07;;;;;;;-1.68;100.00;103881.44;5074797;28;20068;-61
2023/02/07 03:45:31;;;;;;;28.20;13.63;;;;;;;-1.66;100.00;103876.34;5074743;28;20056;-61
2023/02/07 03:47:59;;;;;;;28.60;13.00;;;;;;;-1.73;100.00;103877.84;5073172;28;20110;-61
2023/02/07 03:50:28;;;;;;;27.42;12.55;;;;;;;-1.80;100.00;103873.28;5070783;28;20041;-61
2023/02/07 03:52:57;;;;;;;27.50;13.20;;;;;;;-1.78;100.00;103884.56;5071128;28;20049;-61
2023/02/07 03:55:25;;;;;;;27.67;12.18;;;;;;;-1.80;100.00;103883.59;5070586;28;20546;-61
2023/02/07 03:57:53;;;;;;;23.92;12.02;;;;;;;-1.82;100.00;103880.09;5070453;28;20083;-61
2023/02/07 04:00:21;;;;;;;24.67;12.00;;;;;;;-1.83;100.00;103884.38;5071192;28;20372;-60
2023/02/07 04:02:50;;;;;;;26.25;12.13;;;;;;;-1.84;100.00;103871.41;5072297;28;20070;-61
2023/02/07 04:05:21;;;;;;;23.52;12.13;;;;;;;-1.90;100.00;103874.66;5072119;28;20082;-61
2023/02/07 04:07:50;;;;;;;27.98;12.57;;;;;;;-1.89;100.00;103877.28;5070935;28;20040;-60
2023/02/07 04:10:19;;;;;;;27.67;12.88;;;;;;;-1.95;100.00;103871.03;5070062;28;20048;-60
2023/02/07 04:12:47;;;;;;;27.52;12.60;;;;;;;-1.95;100.00;103876.19;5070735;28;20123;-61
2023/02/07 04:15:18;;;;;;;27.42;13.13;;;;;;;-2.00;100.00;103883.78;5071916;28;20049;-61
2023/02/07 04:17:46;;;;;;;27.73;12.82;;;;;;;-1.98;100.00;103881.25;5070140;28;20102;-61
2023/02/07 04:20:18;;;;;;;26.70;12.65;;;;;;;-2.04;100.00;103887.94;5073504;28;20072;-61
2023/02/07 04:22:46;;;;;;;28.50;12.40;;;;;;;-2.09;100.00;103878.28;5070614;28;20463;-61
2023/02/07 04:25:15;;;;;;;28.27;12.70;;;;;;;-2.09;100.00;103868.84;5070906;28;20091;-62
2023/02/07 04:27:43;;;;;;;30.00;13.20;;;;;;;-2.14;100.00;103866.91;5072052;28;20074;-61
2023/02/07 04:30:12;;;;;;;26.55;13.13;;;;;;;-2.09;100.00;103871.41;5070422;28;20123;-61
2023/02/07 04:32:40;;;;;;;26.63;12.88;;;;;;;-2.01;100.00;103870.84;5070215;28;20213;-62
2023/02/07 04:35:08;;;;;;;28.02;12.50;;;;;;;-2.09;100.00;103860.22;5068089;28;20529;-60
2023/02/07 04:37:37;;;;;;;30.08;12.20;;;;;;;-2.17;100.00;103859.09;5054516;28;20520;-61
2023/02/07 04:40:05;;;;;;;31.05;12.57;;;;;;;-2.21;100.00;103853.81;5069830;28;20131;-61
2023/02/07 04:42:35;;;;;;;25.20;12.07;;;;;;;-2.22;100.00;103852.06;5070606;28;20047;-61
2023/02/07 04:45:06;;;;;;;27.25;12.48;;;;;;;-2.21;100.00;103855.50;5073368;28;20045;-62
2023/02/07 04:47:34;;;;;;;30.15;13.65;;;;;;;-2.21;100.00;103864.13;5069702;28;20052;-61
2023/02/07 04:50:02;;;;;;;30.23;13.05;;;;;;;-2.27;100.00;103851.00;5069878;28;20083;-61
2023/02/07 04:52:30;;;;;;;27.83;13.93;;;;;;;-2.32;100.00;103855.09;5071563;28;20503;-60
2023/02/07 04:54:58;;;;;;;33.08;13.88;;;;;;;-2.39;100.00;103853.13;5069531;28;20207;-61
2023/02/07 04:57:26;;;;;;;27.50;13.27;;;;;;;-2.43;100.00;103851.25;5068733;28;20377;-60
2023/02/07 04:59:56;;;;;;;29.35;13.57;;;;;;;-2.42;100.00;103847.88;5070536;28;20053;-61
2023/02/07 05:02:24;;;;;;;28.83;14.05;;;;;;;-2.40;100.00;103841.94;5069919;28;20040;-61
2023/02/07 05:04:52;;;;;;;30.85;13.57;;;;;;;-2.42;100.00;103846.16;5070971;28;20582;-61
2023/02/07 05:07:20;;;;;;;28.40;14.48;;;;;;;-2.47;100.00;103847.69;5073023;28;20040;-60
2023/02/07 05:09:48;;;;;;;31.38;13.75;;;;;;;-2.43;100.00;103838.38;5073031;28;20049;-61
2023/02/07 05:12:16;;;;;;;33.08;12.93;;;;;;;-2.50;100.00;103833.81;5069393;28;20048;-61
2023/02/07 05:14:44;;;;;;;31.55;13.52;;;;;;;-2.51;100.00;103834.63;5069514;28;20047;-60
2023/02/07 05:17:14;;;;;;;32.25;13.45;;;;;;;-2.43;100.00;103840.94;5072995;28;20506;-61
2023/02/07 05:19:45;;;;;;;29.45;14.05;;;;;;;-2.50;100.00;103841.56;5070957;28;20044;-61
2023/02/07 05:22:13;;;;;;;28.40;13.10;;;;;;;-2.54;100.00;103837.97;5069345;28;20045;-61
2023/02/07 05:24:42;;;;;;;27.27;13.50;;;;;;;-2.57;100.00;103841.31;5068426;28;20507;-60
2023/02/07 05:27:13;;;;;;;28.65;14.07;;;;;;;-2.57;100.00;103849.03;5067784;28;20388;-61
2023/02/07 05:29:41;;;;;;;35.00;14.18;;;;;;;-2.64;100.00;103839.31;5069698;28;20140;-60
2023/02/07 05:35:00;;;;;;;33.70;14.15;;;;;;;-2.59;100.00;103855.84;5072399;28;20415;-60
2023/02/07 05:37:28;;;;;;;27.88;13.35;;;;;;;-2.66;100.00;103856.41;5069372;28;20055;-60
2023/02/07 05:39:56;;;;;;;29.90;13.38;;;;;;;-2.68;100.00;103854.63;5069541;28;20494;-61
2023/02/07 05:42:24;;;;;;;26.90;12.70;;;;;;;-2.72;100.00;103863.94;5071238;28;20048;-60
2023/02/07 05:44:55;;;;;;;25.42;12.88;;;;;;;-2.77;100.00;103871.50;5069321;28;20064;-60
2023/02/07 05:47:23;;;;;;;32.30;14.05;;;;;;;-2.68;100.00;103873.53;5071333;28;20048;-61
2023/02/07 05:49:51;;;;;;;26.17;12.48;;;;;;;-2.64;100.00;103877.97;5072487;28;20093;-60
2023/02/07 05:52:20;;;;;;;31.20;13.48;;;;;;;-2.68;100.00;103883.84;5072292;28;20062;-60
2023/02/07 05:54:48;;;;;;;27.58;12.05;;;;;;;-2.67;100.00;103887.28;5071281;28;20415;-60
2023/02/07 05:57:19;;;;;;;24.95;12.23;;;;;;;-2.74;100.00;103891.31;5067778;28;20045;-60
2023/02/07 05:59:47;;;;;;;26.20;13.25;;;;;;;-2.74;100.00;103894.78;5071213;28;20553;-60
2023/02/07 06:02:16;;;;;;;29.23;12.73;;;;;;;-2.76;100.00;103893.84;5069620;28;20086;-60
2023/02/07 06:04:44;;;;;;;25.65;13.23;;;;;;;-2.79;100.00;103892.84;5068846;28;20047;-60
2023/02/07 06:07:12;;;;;;;28.75;14.00;;;;;;;-2.77;100.00;103902.41;5068794;28;20040;-60
2023/02/07 06:09:44;;;;;;;26.30;11.80;;;;;;;-2.76;100.00;103905.84;5068732;28;20094;-60
2023/02/07 06:12:12;;;;;;;25.33;13.75;;;;;;;-2.75;100.00;103903.34;5067850;28;20048;-60
2023/02/07 06:14:40;;;;;;;28.00;12.90;;;;;;;-2.83;100.00;103899.56;5068847;28;20098;-60
2023/02/07 06:17:08;;;;;;;26.95;13.40;;;;;;;-2.84;100.00;103908.13;5068565;28;20044;-60
2023/02/07 06:19:36;;;;;;;27.95;12.18;;;;;;;-2.83;100.00;103901.28;5068710;28;20119;-60
2023/02/07 06:22:04;;;;;;;25.88;13.77;;;;;;;-2.81;100.00;103899.63;5068819;28;20048;-60
2023/02/07 06:24:32;;;;;;;27.00;14.00;;;;;;;-2.81;100.00;103900.53;5067988;28;20040;-60
2023/02/07 06:27:02;;;;;;;25.27;13.05;;;;;;;-2.81;100.00;103904.78;5071464;28;20052;-60
2023/02/07 06:29:30;;;;;;;28.55;13.95;;;;;;;-2.80;100.00;103902.25;5076117;28;20055;-60
2023/02/07 06:31:58;;;;;;;27.65;14.13;;;;;;;-2.78;100.00;103904.91;5075839;28;20091;-60
2023/02/07 06:34:26;;;;;;;30.05;14.02;;;;;;;-2.83;100.00;103899.56;5072396;28;20044;-60
2023/02/07 06:36:54;;;;;;;30.25;14.05;;;;;;;-2.84;100.00;103912.41;5073619;28;20135;-60
2023/02/07 06:39:22;;;;;;;26.30;13.07;;;;;;;-2.92;100.00;103910.41;5057819;28;20053;-60
2023/02/07 06:41:50;;;;;;;29.00;13.32;;;;;;;-2.87;100.00;103899.41;5075862;28;20048;-60
2023/02/07 06:44:20;;;;;;;31.40;13.55;;;;;;;-2.87;100.00;103905.44;5075376;28;20049;-60
2023/02/07 06:46:48;;;;;;;35.00;14.43;;;;;;;-2.88;100.00;103901.09;5072465;28;20498;-60
2023/02/07 06:49:16;;;;;;;29.55;13.77;;;;;;;-2.86;100.00;103903.72;5071030;28;20052;-60
2023/02/07 06:51:44;;;;;;;30.63;14.68;;;;;;;-2.90;100.00;103911.34;5072180;28;20083;-60
2023/02/07 06:54:12;;;;;;;31.80;14.45;;;;;;;-2.92;100.00;103918.13;5071644;28;20394;-60
2023/02/07 06:56:40;;;;;;;36.58;15.60;;;;;;;-2.92;100.00;103919.81;5070923;28;20060;-60
2023/02/07 06:59:09;;;;;;;34.80;15.07;;;;;;;-2.94;100.00;103914.59;5075519;28;20056;-60
2023/02/07 07:01:38;;;;;;;31.77;15.05;;;;;;;-2.94;100.00;103913.72;5074132;28;20076;-60
2023/02/07 07:04:06;;;;;;;33.90;15.15;;;;;;;-2.99;100.00;103917.81;5070669;28;20056;-60
2023/02/07 07:06:34;;;;;;;34.90;15.05;;;;;;;-2.99;100.00;103931.56;5072185;28;20056;-60
2023/02/07 07:09:03;;;;;;;41.17;15.70;;;;;;;-3.06;100.00;103934.72;5071944;28;20127;-60
2023/02/07 07:11:32;;;;;;;32.33;14.52;;;;;;;-3.02;100.00;103939.16;5070745;28;20076;-60
2023/02/07 07:14:01;;;;;;;28.40;13.13;;;;;;;-3.03;100.00;103936.53;5072187;28;20048;-60
2023/02/07 07:16:29;;;;;;;32.90;15.10;;;;;;;-3.10;100.00;103943.13;5073564;28;20068;-60
2023/02/07 07:18:59;;;;;;;32.65;14.98;;;;;;;-3.17;100.00;103943.69;5072320;28;20180;-60
2023/02/07 07:21:27;;;;;;;28.17;14.25;;;;;;;-3.15;100.00;103949.78;5071407;28;20046;-60
2023/02/07 07:23:55;;;;;;;29.50;14.27;;;;;;;-3.16;100.00;103948.00;5074286;28;20831;-60
2023/02/07 07:26:23;;;;;;;31.20;14.52;;;;;;;-3.17;100.00;103951.41;5052869;28;20052;-60
2023/02/07 07:28:56;;;;;;;30.40;14.23;;;;;;;-3.15;100.00;103940.38;5073317;28;20094;-59
2023/02/07 07:31:25;;;;;;;30.58;13.20;;;;;;;-3.07;100.00;103941.56;5075174;28;20053;-60
2023/02/07 07:33:54;;;;;;;27.35;13.73;;;;;;;-3.10;100.00;103949.13;5075090;28;20269;-61
2023/02/07 07:36:24;;;;;;;28.08;14.57;;;;;;;-3.10;100.00;103948.28;5074812;28;20135;-60
2023/02/07 07:38:52;;;;;;;30.35;13.90;;;;;;;-3.16;100.00;103948.00;5073184;28;20071;-61
2023/02/07 07:41:20;;;;;;;29.23;14.38;;;;;;;-3.12;100.00;103949.88;5052314;28;20083;-60
2023/02/07 07:43:48;;;;;;;32.85;14.32;;;;;;;-2.97;100.00;103944.50;5073079;28;20070;-60
2023/02/07 07:46:16;;;;;;;30.50;14.77;;;;;;;-2.82;100.00;103952.88;5073933;28;20040;-60
2023/02/07 07:48:45;;;;;;;28.95;14.93;;;;;;;-2.80;100.00;103958.94;5074120;28;20075;-60
2023/02/07 07:51:13;;;;;;;30.38;14.65;;;;;;;-2.70;100.00;103952.47;5052980;28;20044;-60
2023/02/07 07:53:42;;;;;;;31.40;15.30;;;;;;;-2.67;100.00;103962.00;5072487;28;20098;-60
2023/02/07 07:56:13;;;;;;;33.88;16.80;;;;;;;-2.48;100.00;103967.09;5074487;28;20040;-61
2023/02/07 07:58:41;;;;;;;33.40;15.90;;;;;;;-2.33;100.00;103971.97;5074432;28;20055;-61
2023/02/07 08:01:10;;;;;;;32.35;15.73;;;;;;;-2.22;100.00;103974.97;5071185;28;20689;-60
2023/02/07 08:03:38;;;;;;;35.30;16.67;;;;;;;-2.01;100.00;103974.03;5070621;28;20136;-60
2023/02/07 08:06:08;;;;;;;31.38;15.60;;;;;;;-1.81;100.00;103972.16;5070906;28;20480;-60
2023/02/07 08:08:36;;;;;;;31.85;15.20;;;;;;;-1.62;100.00;103964.28;5070712;28;20049;-61
2023/02/07 08:11:08;;;;;;;38.30;17.70;;;;;;;-1.61;100.00;103972.88;5072962;28;20059;-61
2023/02/07 08:13:36;;;;;;;35.03;17.65;;;;;;;-1.34;100.00;103970.41;5071610;28;20048;-61
2023/02/07 08:16:07;;;;;;;35.05;17.65;;;;;;;-1.30;100.00;103966.22;5070868;28;20074;-60
2023/02/07 08:18:35;;;;;;;32.72;15.60;;;;;;;-1.10;100.00;103959.16;5070217;28;20036;-61
2023/02/07 08:21:06;;;;;;;35.13;16.55;;;;;;;-0.96;100.00;103964.78;5070833;28;20389;-60
2023/02/07 08:23:35;;;;;;;35.33;16.38;;;;;;;-0.96;100.00;103960.47;5072878;28;20044;-60
2023/02/07 08:26:03;;;;;;;33.80;16.33;;;;;;;-0.97;100.00;103966.47;5073652;28;20048;-60
2023/02/07 08:28:33;;;;;;;32.45;15.45;;;;;;;-1.03;100.00;103959.41;5073907;28;20123;-60
2023/02/07 08:31:02;;;;;;;35.20;15.98;;;;;;;-0.78;100.00;103961.91;5072706;28;20110;-61
2023/02/07 08:33:30;;;;;;;31.63;16.30;;;;;;;-0.99;100.00;103959.53;5070149;28;20124;-61
2023/02/07 08:35:59;;;;;;;33.10;16.25;;;;;;;-1.14;100.00;103959.88;5070872;28;20056;-60
2023/02/07 08:38:27;;;;;;;29.48;15.48;;;;;;;-1.01;100.00;103954.28;5070285;28;20518;-60
2023/02/07 08:40:55;;;;;;;33.60;16.50;;;;;;;-1.13;100.00;103954.78;5069171;28;20133;-60
2023/02/07 08:43:24;;;;;;;36.10;16.77;;;;;;;-1.11;100.00;103941.91;5070457;28;20470;-60
2023/02/07 08:45:53;;;;;;;39.15;17.65;;;;;;;-1.00;100.00;103945.72;5052454;28;20106;-60
2023/02/07 08:48:21;;;;;;;31.70;15.73;;;;;;;-1.05;100.00;103950.72;5070154;28;20546;-62
2023/02/07 08:50:50;;;;;;;36.70;18.92;;;;;;;-1.24;100.00;103948.34;5051287;28;20049;-60
2023/02/07 08:53:18;;;;;;;33.42;16.10;;;;;;;-1.08;100.00;103957.50;5070025;28;20400;-60
2023/02/07 08:55:46;;;;;;;32.50;16.88;;;;;;;-1.16;100.00;103958.94;5069538;28;20072;-60
2023/02/07 08:58:14;;;;;;;36.08;17.17;;;;;;;-1.25;100.00;103955.22;5073372;28;20484;-60
2023/02/07 09:00:42;;;;;;;36.03;17.10;;;;;;;-1.17;100.00;103958.06;5054714;28;20052;-60
2023/02/07 09:03:12;;;;;;;37.55;18.08;;;;;;;-1.26;100.00;103950.00;5072687;28;20098;-60
2023/02/07 09:05:41;;;;;;;34.60;16.05;;;;;;;-1.45;100.00;103954.53;5073406;28;20047;-60
2023/02/07 09:08:09;;;;;;;34.38;17.85;;;;;;;-1.39;100.00;103964.19;5069855;28;20098;-61
2023/02/07 09:10:38;;;;;;;29.48;16.33;;;;;;;-1.43;100.00;103960.63;5069082;28;20044;-61
2023/02/07 09:13:06;;;;;;;32.60;16.85;;;;;;;-1.22;100.00;103950.16;5069644;28;20044;-61
2023/02/07 09:15:35;;;;;;;32.13;16.70;;;;;;;-1.07;100.00;103951.50;5051779;28;20059;-61
2023/02/07 09:18:03;;;;;;;34.72;18.65;;;;;;;-1.07;100.00;103960.13;5071869;28;20066;-60
2023/02/07 09:20:33;;;;;;;35.97;18.80;;;;;;;-0.97;100.00;103957.84;5072949;28;20058;-60
2023/02/07 09:23:18;;;;;;;35.08;19.27;;;;;;;-1.13;100.00;103961.63;5073441;28;20044;-60
2023/02/07 09:25:49;;;;;;;34.25;18.38;;;;;;;-1.20;100.00;103955.38;5073379;28;20116;-60
2023/02/07 09:28:18;;;;;;;30.80;15.07;;;;;;;-0.98;100.00;103953.50;5073205;28;20051;-60
2023/02/07 09:30:47;;;;;;;34.20;17.15;;;;;;;-0.97;100.00;103952.69;5073389;28;20055;-60
2023/02/07 09:33:16;;;;;;;27.63;14.93;;;;;;;-0.99;100.00;103952.63;5073340;28;20518;-59
2023/02/07 09:35:47;;;;;;;32.78;15.80;;;;;;;-0.96;100.00;103946.69;5072863;28;20049;-59
2023/02/07 09:38:17;;;;;;;33.13;17.88;;;;;;;-1.03;100.00;103937.88;5073136;28;20063;-59
2023/02/07 09:40:48;;;;;;;34.22;16.45;;;;;;;-0.94;100.00;103935.59;5073103;28;20056;-60
2023/02/07 09:43:29;;;;;;;30.70;16.35;;;;;;;-0.74;100.00;103938.78;5072881;28;20044;-59
2023/02/07 09:46:11;;;;;;;34.30;16.30;;;;;;;-0.65;100.00;103930.47;5070697;28;20044;-60
2023/02/07 09:48:47;;;;;;;34.53;17.23;;;;;;;-0.49;100.00;103939.56;5070371;28;20135;-60
2023/02/07 09:51:20;;;;;;;31.92;16.25;;;;;;;-0.33;100.00;103934.84;5070359;28;20036;-60
2023/02/07 09:53:54;;;;;;;33.13;17.00;;;;;;;-0.26;100.00;103935.09;5069732;28;20106;-60
2023/02/07 09:56:26;;;;;;;33.33;16.27;;;;;;;-0.17;100.00;103931.88;5072330;28;20032;-60
2023/02/07 09:59:00;;;;;;;32.85;16.33;;;;;;;0.11;100.00;103923.22;5071176;28;20079;-60
2023/02/07 10:01:34;;;;;;;34.47;16.50;;;;;;;0.19;100.00;103928.56;5068911;28;20496;-60
2023/02/07 10:04:17;;;;;;;29.35;15.75;;;;;;;0.29;100.00;103937.50;5068931;28;20068;-60
2023/02/07 10:06:51;;;;;;;30.15;14.93;;;;;;;0.45;100.00;103937.06;5069889;28;20383;-60
2023/02/07 10:09:29;;;;;;;30.25;14.80;;;;;;;0.80;100.00;103937.09;5072193;28;20106;-60
2023/02/07 10:12:04;;;;;;;28.33;15.20;;;;;;;0.90;100.00;103933.03;5067276;28;20052;-61
2023/02/07 10:14:49;;;;;;;25.85;15.02;;;;;;;0.92;100.00;103931.34;5066588;28;20079;-61
2023/02/07 10:17:42;;;;;;;25.92;13.25;;;;;;;1.19;100.00;103922.50;5068130;28;20522;-61
2023/02/07 10:20:32;;;;;;;25.38;12.75;;;;;;;1.41;100.00;103931.63;5070379;28;20083;-61
2023/02/07 10:23:12;;;;;;;26.17;13.77;;;;;;;1.76;100.00;103949.72;5072060;28;20048;-61
2023/02/07 10:25:47;;;;;;;27.15;12.98;;;;;;;1.94;100.00;103938.81;5072407;28;20049;-61
2023/02/07 10:28:43;;;;;;;20.85;11.50;;;;;;;2.04;100.00;103942.47;5072310;28;20048;-61
2023/02/07 10:31:15;;;;;;;20.77;12.20;;;;;;;2.64;100.00;103941.00;5072048;28;20399;-62
2023/02/07 10:33:49;;;;;;;22.20;11.25;;;;;;;2.95;100.00;103948.47;5071782;28;20079;-61
2023/02/07 10:36:18;;;;;;;21.35;10.90;;;;;;;3.04;100.00;103938.19;5058801;28;20049;-61
2023/02/07 10:38:56;;;;;;;21.15;11.40;;;;;;;3.78;100.00;103936.66;5072103;28;20056;-62
2023/02/07 10:41:37;;;;;;;19.92;11.25;;;;;;;4.02;100.00;103938.72;5071838;28;20118;-62
2023/02/07 10:44:07;;;;;;;18.58;10.25;;;;;;;3.72;100.00;103947.00;5071953;28;20095;-62
2023/02/07 10:46:36;;;;;;;18.27;10.20;;;;;;;3.69;100.00;103940.00;5071991;28;20044;-62
2023/02/07 10:49:04;;;;;;;19.30;9.65;;;;;;;3.88;100.00;103946.34;5070054;28;20055;-62
2023/02/07 10:51:35;;;;;;;16.20;8.88;;;;;;;3.57;100.00;103946.78;5068198;28;20045;-62
2023/02/07 10:54:09;;;;;;;16.58;9.43;;;;;;;4.01;100.00;103949.13;5071572;28;20052;-62
2023/02/07 10:56:42;;;;;;;16.73;8.55;;;;;;;4.02;100.00;103946.53;5067476;28;20101;-62
2023/02/07 10:59:39;;;;;;;17.38;9.63;;;;;;;4.61;100.00;103933.22;5068603;28;20094;-62
2023/02/07 11:02:47;;;;;;;16.00;9.45;;;;;;;4.93;100.00;103937.84;5068460;28;20045;-62
2023/02/07 11:05:50;;;;;;;15.50;8.95;;;;;;;5.40;100.00;103940.78;5009790;28;20046;-62
2023/02/07 11:08:23;;;;;;;14.05;8.32;;;;;;;5.63;100.00;103940.06;5007533;28;20057;-61
2023/02/07 11:10:54;;;;;;;14.27;7.50;;;;;;;6.02;100.00;103927.19;5052824;28;20069;-62
2023/02/07 11:13:25;;;;;;;14.52;8.10;;;;;;;6.39;100.00;103922.03;5072412;28;20058;-61
2023/02/07 11:16:00;;;;;;;16.85;7.72;;;;;;;6.35;100.00;103926.38;5071855;28;20040;-62
2023/02/07 11:18:36;;;;;;;12.90;7.60;;;;;;;6.28;100.00;103929.00;5073883;28;20120;-61
2023/02/07 11:21:20;;;;;;;15.55;7.45;;;;;;;6.37;100.00;103915.97;5075117;28;20051;-62
2023/02/07 11:23:50;;;;;;;14.75;7.55;;;;;;;6.42;100.00;103920.31;5073879;28;20457;-61
2023/02/07 11:26:22;;;;;;;13.02;6.97;;;;;;;6.34;100.00;103923.78;5070392;28;20384;-61
2023/02/07 11:29:01;;;;;;;12.70;6.47;;;;;;;6.50;100.00;103920.31;5073778;28;20079;-62